Time;durP1;ratioP1;P1;durP2;ratioP2;P2;SDS_P1;SDS_P2;PMS_P1;PMS_P2;Temp;Humidity;BMP_temperature;BMP_pressure;BME280_temperature;BME280_humidity;BME280_pressure;Samples;Min_cycle;Max_cycle;Signal;HPM_P1;HPM_P2
2024/01/20 00:00:39;;;;;;;12.40;5.20;;;;;;;-3.50;76.24;95820.12;106746;1274;25415;-79
2024/01/20 00:03:27;;;;;;;11.60;5.50;;;;;;;-3.53;76.15;95814.68;106723;1274;25242;-79
2024/01/20 00:05:55;;;;;;;12.10;5.10;;;;;;;-3.55;75.93;95810.65;106657;1274;24222;-79
2024/01/20 00:08:24;;;;;;;8.90;4.70;;;;;;;-3.53;75.86;95812.60;106715;1274;25804;-79
2024/01/20 00:10:52;;;;;;;14.60;5.80;;;;;;;-3.55;75.73;95824.56;106760;1274;25444;-79
2024/01/20 00:13:21;;;;;;;12.60;5.40;;;;;;;-3.53;76.13;95831.52;106794;1274;24250;-79
2024/01/20 00:15:50;;;;;;;10.80;5.20;;;;;;;-3.55;75.47;95836.10;106800;1274;24216;-79
2024/01/20 00:18:18;;;;;;;11.40;5.00;;;;;;;-3.55;75.80;95841.42;106836;1274;22761;-79
2024/01/20 00:20:46;;;;;;;12.90;5.40;;;;;;;-3.55;75.70;95847.96;106796;1274;25300;-79
2024/01/20 00:23:15;;;;;;;16.80;7.00;;;;;;;-3.57;75.92;95855.45;106672;1272;22528;-78
2024/01/20 00:25:43;;;;;;;11.40;4.30;;;;;;;-3.59;75.07;95860.34;106784;1274;24229;-79
2024/01/20 00:28:12;;;;;;;13.50;6.20;;;;;;;-3.64;75.30;95858.58;106736;1274;23884;-79
2024/01/20 00:30:40;;;;;;;13.50;5.40;;;;;;;-3.70;75.42;95856.28;106612;1274;24063;-78
2024/01/20 00:33:09;;;;;;;13.30;5.40;;;;;;;-3.75;75.41;95852.33;106661;1274;22528;-79
2024/01/20 00:35:42;;;;;;;10.10;4.90;;;;;;;-3.79;75.36;95848.91;106679;1274;22650;-79
2024/01/20 00:38:11;;;;;;;;;;;;;;;-3.85;75.46;95853.95;106824;1274;22521;-77
2024/01/20 00:40:40;;;;;;;12.90;5.70;;;;;;;-3.91;75.58;95855.45;106687;1274;22736;-79
2024/01/20 00:43:08;;;;;;;17.50;6.20;;;;;;;-3.96;75.77;95857.83;106686;1274;25496;-79
2024/01/20 00:45:37;;;;;;;11.80;6.00;;;;;;;-4.05;75.83;95862.95;106811;1274;23218;-79
2024/01/20 00:48:05;;;;;;;11.30;4.70;;;;;;;-4.11;75.99;95868.70;106625;1274;24366;-79
2024/01/20 00:50:33;;;;;;;8.30;4.20;;;;;;;-4.18;76.34;95872.37;106694;1274;24481;-79
2024/01/20 00:53:01;;;;;;;6.90;3.90;;;;;;;-4.26;76.51;95880.10;106798;1274;25368;-79
2024/01/20 00:55:30;;;;;;;10.70;3.90;;;;;;;-4.34;76.69;95886.48;106728;1274;24058;-78
2024/01/20 00:57:58;;;;;;;9.90;4.40;;;;;;;-4.42;76.78;95886.48;106885;1274;22820;-79
2024/01/20 01:00:26;;;;;;;10.10;4.50;;;;;;;-4.50;77.06;95887.67;106989;1274;24499;-79
2024/01/20 01:02:54;;;;;;;8.60;4.30;;;;;;;-4.59;77.43;95892.43;106637;1274;22533;-79
2024/01/20 01:05:23;;;;;;;7.50;4.00;;;;;;;-4.64;77.76;95900.95;106698;1274;24402;-79
2024/01/20 01:07:51;;;;;;;11.30;5.20;;;;;;;-4.69;78.01;95904.48;106781;1274;25312;-79
2024/01/20 01:10:20;;;;;;;9.20;3.90;;;;;;;-4.72;78.50;95909.85;106728;1274;24247;-78
2024/01/20 01:12:49;;;;;;;11.40;4.80;;;;;;;-4.78;78.56;95913.21;106645;1274;25356;-79
2024/01/20 01:15:17;;;;;;;13.60;5.20;;;;;;;-4.80;79.01;95914.14;106764;1274;25455;-78
2024/01/20 01:17:45;;;;;;;9.90;4.00;;;;;;;-4.86;78.77;95921.60;106882;1274;22655;-78
2024/01/20 01:20:14;;;;;;;12.50;5.30;;;;;;;-5.04;78.72;95927.46;106983;1274;22633;-78
2024/01/20 01:22:42;;;;;;;9.60;5.10;;;;;;;-5.14;79.65;95931.61;106636;1274;24224;-79
2024/01/20 01:25:10;;;;;;;14.50;5.20;;;;;;;-5.12;80.14;95933.97;106690;1274;23912;-79
2024/01/20 01:27:39;;;;;;;9.80;4.00;;;;;;;-5.15;79.88;95938.95;106785;1274;22723;-78
2024/01/20 01:30:08;;;;;;;10.70;4.20;;;;;;;-5.18;80.16;95937.30;106689;1274;23706;-78
2024/01/20 01:32:36;;;;;;;7.30;3.90;;;;;;;-5.25;80.00;95950.02;106750;1274;22524;-78
2024/01/20 01:35:04;;;;;;;12.40;4.90;;;;;;;-5.31;80.55;95948.30;106689;1274;24330;-79
2024/01/20 01:37:33;;;;;;;9.50;4.60;;;;;;;-5.39;80.65;95954.11;106630;1274;22520;-78
2024/01/20 01:40:01;;;;;;;10.90;4.60;;;;;;;-5.44;80.91;95959.03;106688;1274;22633;-78
2024/01/20 01:42:29;;;;;;;7.20;2.90;;;;;;;-5.47;81.03;95967.98;106845;1274;24212;-78
2024/01/20 01:44:57;;;;;;;10.90;4.80;;;;;;;-5.46;81.17;95971.30;106844;1274;22786;-79
2024/01/20 01:47:26;;;;;;;8.90;4.50;;;;;;;-5.43;81.20;95975.53;106862;1270;23097;-78
2024/01/20 01:49:54;;;;;;;10.60;4.00;;;;;;;-5.47;80.55;95974.47;107079;1274;25436;-79
2024/01/20 01:52:24;;;;;;;12.00;4.30;;;;;;;-5.55;80.70;95979.59;106810;1274;25256;-79
2024/01/20 01:54:53;;;;;;;12.70;5.20;;;;;;;-5.63;80.79;95985.02;106733;1274;22614;-79
2024/01/20 01:57:22;;;;;;;9.10;4.60;;;;;;;-5.69;81.04;95993.46;106860;1274;22683;-78
2024/01/20 01:59:51;;;;;;;8.90;4.40;;;;;;;-5.78;80.88;95993.17;106935;1274;22576;-79
2024/01/20 02:02:19;;;;;;;11.30;4.90;;;;;;;-5.88;81.07;95996.46;106986;1274;23589;-79
2024/01/20 02:04:48;;;;;;;10.60;4.50;;;;;;;-5.92;81.63;96000.55;106980;1274;24221;-79
2024/01/20 02:07:16;;;;;;;9.40;4.80;;;;;;;-5.92;81.83;96004.83;106751;1271;22520;-78
2024/01/20 02:09:46;;;;;;;14.20;5.10;;;;;;;-5.95;82.03;96009.14;106595;1274;25870;-78
2024/01/20 02:12:15;;;;;;;8.80;4.20;;;;;;;-6.01;82.11;96015.38;106725;1274;22527;-79
2024/01/20 02:14:44;;;;;;;9.50;4.00;;;;;;;-6.06;81.95;96016.61;106944;1274;22631;-79
2024/01/20 02:17:12;;;;;;;8.90;4.20;;;;;;;-6.12;82.23;96022.70;107007;1274;22662;-79
2024/01/20 02:19:41;;;;;;;8.70;3.70;;;;;;;-6.22;81.95;96024.21;106610;1274;22557;-79
2024/01/20 02:22:18;;;;;;;11.00;4.10;;;;;;;-6.31;82.29;96027.70;106740;1274;22522;-78
2024/01/20 02:24:49;;;;;;;6.70;3.40;;;;;;;-6.40;82.73;96035.91;106837;1274;22816;-78
2024/01/20 02:27:18;;;;;;;8.50;3.70;;;;;;;-6.50;82.70;96034.55;106754;1274;22612;-78
2024/01/20 02:29:46;;;;;;;8.10;3.30;;;;;;;-6.55;83.23;96036.55;106787;1274;22527;-78
2024/01/20 02:32:14;;;;;;;9.10;4.10;;;;;;;-6.60;83.36;96045.66;106684;1274;25359;-79
2024/01/20 02:34:43;;;;;;;8.60;3.90;;;;;;;-6.67;83.04;96044.77;106709;1274;22530;-79
2024/01/20 02:37:11;;;;;;;8.10;3.40;;;;;;;-6.70;83.48;96048.17;106682;1253;22606;-79
2024/01/20 02:39:39;;;;;;;8.10;3.70;;;;;;;-6.73;83.60;96056.38;106699;1274;24386;-78
2024/01/20 02:42:09;;;;;;;9.80;3.60;;;;;;;-6.72;83.72;96062.61;106729;1274;22744;-79
2024/01/20 02:44:38;;;;;;;10.30;3.50;;;;;;;-6.77;83.71;96061.15;107001;1274;23792;-79
2024/01/20 02:47:06;;;;;;;8.40;3.40;;;;;;;-6.80;83.97;96062.54;107018;1274;22611;-79
2024/01/20 02:49:34;;;;;;;10.30;4.10;;;;;;;-6.85;83.77;96065.52;107036;1274;22520;-79
2024/01/20 02:52:04;;;;;;;8.80;4.10;;;;;;;-6.86;84.25;96066.80;106746;1274;23141;-79
2024/01/20 02:54:32;;;;;;;10.80;3.90;;;;;;;-6.86;84.43;96070.77;106724;1274;22570;-78
2024/01/20 02:57:00;;;;;;;8.40;3.90;;;;;;;-6.86;84.40;96080.13;106773;1274;23902;-78
2024/01/20 02:59:29;;;;;;;10.60;4.30;;;;;;;-6.85;84.39;96087.06;107029;1274;22531;-79
2024/01/20 03:01:58;;;;;;;8.40;3.60;;;;;;;-6.82;84.53;96087.04;106914;1274;22531;-79
2024/01/20 03:04:26;;;;;;;9.50;3.60;;;;;;;-6.82;84.41;96088.95;106595;1273;25358;-79
2024/01/20 03:06:54;;;;;;;6.20;2.90;;;;;;;-6.77;84.70;96093.64;106715;1274;22659;-79
2024/01/20 03:09:23;;;;;;;10.40;3.70;;;;;;;-6.71;84.77;96097.04;106655;1274;24644;-79
2024/01/20 03:11:51;;;;;;;10.70;3.60;;;;;;;-6.74;84.44;96106.32;106678;1274;22514;-79
2024/01/20 03:14:19;;;;;;;7.20;3.60;;;;;;;-6.77;84.29;96114.17;106734;1274;25556;-79
2024/01/20 03:16:48;;;;;;;8.90;4.30;;;;;;;-6.76;84.50;96114.24;106699;1274;24419;-79
2024/01/20 03:19:16;;;;;;;8.20;3.50;;;;;;;-6.75;84.44;96119.78;106669;1272;22516;-79
2024/01/20 03:21:44;;;;;;;7.10;3.20;;;;;;;-6.72;84.75;96120.94;106806;1275;22539;-79
2024/01/20 03:24:17;;;;;;;5.50;3.10;;;;;;;-6.64;85.01;96115.27;106725;1274;22803;-79
2024/01/20 03:26:49;;;;;;;13.60;3.80;;;;;;;-6.56;85.01;96124.26;106724;1274;24289;-79
2024/01/20 03:29:17;;;;;;;8.90;3.20;;;;;;;-6.49;84.97;96120.65;106824;1274;25346;-79
2024/01/20 03:31:46;;;;;;;9.70;3.40;;;;;;;-6.44;85.05;96120.77;107000;1251;22532;-79
2024/01/20 03:34:14;;;;;;;7.10;2.90;;;;;;;-6.37;85.10;96130.38;106976;1275;25389;-79
2024/01/20 03:36:42;;;;;;;9.70;3.00;;;;;;;-6.33;84.74;96130.98;106637;1274;22530;-79
2024/01/20 03:39:11;;;;;;;7.30;3.40;;;;;;;-6.38;84.25;96128.47;106687;1274;22733;-79
2024/01/20 03:41:39;;;;;;;4.90;3.00;;;;;;;-6.42;84.13;96130.66;106949;1274;22634;-79
2024/01/20 03:44:08;;;;;;;5.70;2.90;;;;;;;-6.43;84.14;96133.65;106727;1252;22529;-79
2024/01/20 03:46:36;;;;;;;5.60;3.20;;;;;;;-6.46;84.09;96133.34;106686;1274;23163;-79
2024/01/20 03:49:04;;;;;;;7.60;3.00;;;;;;;-6.45;84.32;96140.23;106734;1274;25314;-79
2024/01/20 03:51:33;;;;;;;8.00;2.60;;;;;;;-6.44;83.97;96141.67;106814;1274;24243;-79
2024/01/20 03:54:04;;;;;;;8.70;3.40;;;;;;;-6.48;83.81;96149.11;106686;1275;25546;-79
2024/01/20 03:56:32;;;;;;;6.20;3.00;;;;;;;-6.44;84.30;96148.35;106689;1274;24373;-79
2024/01/20 03:59:00;;;;;;;11.00;3.50;;;;;;;-6.42;83.88;96150.50;106714;1274;25477;-79
2024/01/20 04:01:29;;;;;;;5.20;2.70;;;;;;;-6.34;84.52;96154.73;106703;1274;25489;-79
2024/01/20 04:03:57;;;;;;;22.10;12.50;;;;;;;-6.24;84.62;96153.52;106781;1274;26539;-79
2024/01/20 04:06:25;;;;;;;8.70;3.30;;;;;;;-6.13;84.76;96160.98;106567;1274;24373;-79
2024/01/20 04:08:53;;;;;;;7.80;3.40;;;;;;;-6.01;84.90;96162.80;106765;1274;24314;-79
2024/01/20 04:11:22;;;;;;;7.60;3.10;;;;;;;-5.97;84.50;96163.55;106775;1274;22524;-79
2024/01/20 04:13:50;;;;;;;8.10;3.20;;;;;;;-5.87;84.69;96169.17;106677;1274;25351;-79
2024/01/20 04:16:18;;;;;;;10.10;7.30;;;;;;;-5.80;84.34;96166.10;106888;1274;24361;-79
2024/01/20 04:18:46;;;;;;;6.10;3.10;;;;;;;-5.70;84.65;96170.59;106732;1274;24048;-79
2024/01/20 04:21:15;;;;;;;7.30;3.10;;;;;;;-5.53;85.04;96174.73;106716;1274;25535;-79
2024/01/20 04:23:43;;;;;;;15.90;7.80;;;;;;;-5.41;84.75;96172.95;106777;1274;22474;-79
2024/01/20 04:26:11;;;;;;;15.70;7.30;;;;;;;-5.35;83.30;96180.11;106660;1274;25437;-79
2024/01/20 04:28:39;;;;;;;16.70;7.50;;;;;;;-5.35;82.59;96180.13;106774;1275;22533;-79
2024/01/20 04:31:08;;;;;;;13.60;6.20;;;;;;;-5.38;82.57;96182.87;106694;1274;24367;-79
2024/01/20 04:33:36;;;;;;;8.90;2.70;;;;;;;-5.29;83.75;96184.55;106696;1274;22540;-79
2024/01/20 04:36:05;;;;;;;4.40;2.80;;;;;;;-5.17;83.91;96192.17;106646;1274;25294;-79
2024/01/20 04:38:34;;;;;;;5.80;2.90;;;;;;;-5.14;83.59;96192.71;106710;1274;22522;-79
2024/01/20 04:41:03;;;;;;;13.30;5.70;;;;;;;-5.13;83.37;96198.73;106748;1274;22532;-79
2024/01/20 04:43:31;;;;;;;15.10;7.50;;;;;;;-5.11;83.51;96201.91;106633;1274;22529;-79
2024/01/20 04:45:59;;;;;;;10.90;4.70;;;;;;;-5.01;83.40;96205.83;106750;1274;24383;-79
2024/01/20 04:48:28;;;;;;;7.90;2.80;;;;;;;-4.90;83.78;96208.80;106696;1274;25414;-79
2024/01/20 04:50:57;;;;;;;9.80;4.10;;;;;;;-4.81;83.45;96210.47;106741;1274;22655;-79
2024/01/20 04:53:25;;;;;;;7.60;3.10;;;;;;;-4.73;83.68;96212.21;106633;1274;24252;-79
2024/01/20 04:55:54;;;;;;;7.50;3.30;;;;;;;-4.60;84.13;96215.48;106649;1274;25454;-79
2024/01/20 04:58:22;;;;;;;9.20;3.60;;;;;;;-4.53;83.48;96219.76;106729;1274;22542;-79
2024/01/20 05:00:50;;;;;;;11.40;3.40;;;;;;;-4.51;83.50;96218.30;106728;1275;24251;-79
2024/01/20 05:03:19;;;;;;;11.30;3.40;;;;;;;-4.44;83.55;96225.49;106713;1274;23990;-79
2024/01/20 05:05:47;;;;;;;6.80;3.10;;;;;;;-4.41;83.22;96224.61;106728;1274;25361;-79
2024/01/20 05:08:15;;;;;;;14.20;8.10;;;;;;;-4.49;82.49;96226.81;106701;1274;23146;-79
2024/01/20 05:10:43;;;;;;;28.70;14.90;;;;;;;-4.54;82.48;96235.65;106717;1274;22533;-79
2024/01/20 05:13:11;;;;;;;30.20;15.80;;;;;;;-4.51;82.24;96237.00;106714;1274;24378;-79
2024/01/20 05:15:39;;;;;;;14.50;7.00;;;;;;;-4.58;81.90;96240.48;106710;1275;22523;-79
2024/01/20 05:18:08;;;;;;;10.00;3.90;;;;;;;-4.58;82.60;96244.58;106637;1274;22588;-79
2024/01/20 05:20:37;;;;;;;10.70;3.70;;;;;;;-4.52;83.19;96245.21;106693;1274;25294;-79
2024/01/20 05:23:06;;;;;;;8.70;4.00;;;;;;;-4.44;83.11;96245.43;106675;1274;22535;-79
2024/01/20 05:25:34;;;;;;;47.10;18.90;;;;;;;-4.43;82.12;96249.42;106784;1272;25383;-79
2024/01/20 05:28:02;;;;;;;41.30;18.20;;;;;;;-4.53;80.94;96248.10;106812;1274;24224;-79
2024/01/20 05:30:30;;;;;;;11.90;5.20;;;;;;;-4.72;80.65;96253.16;106634;1275;22520;-79
2024/01/20 05:32:59;;;;;;;21.40;10.60;;;;;;;-4.93;80.67;96253.25;106699;1274;25377;-79
2024/01/20 05:35:27;;;;;;;11.20;5.70;;;;;;;-5.03;81.26;96256.89;106685;1273;22644;-79
2024/01/20 05:37:55;;;;;;;7.90;3.30;;;;;;;-5.19;80.52;96258.80;106681;1274;22527;-80
2024/01/20 05:40:23;;;;;;;19.70;9.00;;;;;;;-5.39;80.59;96264.92;106711;1274;22542;-79
2024/01/20 05:42:52;;;;;;;12.50;5.20;;;;;;;-5.47;81.45;96265.73;107034;1274;25493;-78
2024/01/20 05:45:20;;;;;;;17.40;8.80;;;;;;;-5.57;81.42;96265.19;106736;1274;22529;-80
2024/01/20 05:47:48;;;;;;;8.00;4.30;;;;;;;-5.71;81.18;96268.56;106753;1274;24481;-80
2024/01/20 05:50:16;;;;;;;9.30;4.60;;;;;;;-5.75;82.11;96277.96;106683;1274;24213;-80
2024/01/20 05:52:44;;;;;;;13.60;6.30;;;;;;;-5.78;82.19;96289.95;106697;1274;24407;-80
2024/01/20 05:55:12;;;;;;;11.10;4.30;;;;;;;-5.71;82.88;96288.77;106663;1274;24403;-79
2024/01/20 05:57:41;;;;;;;10.60;4.10;;;;;;;-5.69;82.31;96282.89;106651;1260;22734;-79
2024/01/20 06:00:09;;;;;;;9.00;3.70;;;;;;;-5.75;81.80;96286.15;106697;1274;22650;-79
2024/01/20 06:02:38;;;;;;;5.90;3.60;;;;;;;-5.82;81.56;96295.39;106717;1275;23911;-79
2024/01/20 06:05:06;;;;;;;9.80;3.30;;;;;;;-5.99;80.74;96295.84;106608;1275;25428;-79
2024/01/20 06:07:35;;;;;;;10.70;3.90;;;;;;;-6.16;80.83;96302.42;106634;1274;22540;-79
2024/01/20 06:10:03;;;;;;;8.10;3.80;;;;;;;-6.23;81.65;96303.38;107062;1274;22639;-80
2024/01/20 06:12:31;;;;;;;19.20;8.30;;;;;;;-6.31;81.45;96304.84;106757;1274;22805;-79
2024/01/20 06:15:00;;;;;;;4.00;2.40;;;;;;;-6.44;81.41;96311.99;106931;1262;25329;-79
2024/01/20 06:17:28;;;;;;;9.40;3.40;;;;;;;-6.55;81.09;96309.98;106648;1274;25504;-79
2024/01/20 06:19:56;;;;;;;6.80;3.50;;;;;;;-6.73;81.15;96312.52;106668;1274;25386;-79
2024/01/20 06:22:24;;;;;;;9.20;3.30;;;;;;;-6.74;82.26;96313.64;106694;1274;22528;-80
2024/01/20 06:24:52;;;;;;;6.60;2.80;;;;;;;-6.78;81.49;96319.25;106668;1275;24056;-79
2024/01/20 06:27:21;;;;;;;6.10;2.90;;;;;;;-6.91;81.19;96320.48;106579;1274;25423;-80
2024/01/20 06:29:49;;;;;;;36.20;17.10;;;;;;;-6.95;81.85;96322.86;106799;1274;25504;-79
2024/01/20 06:32:17;;;;;;;10.30;3.30;;;;;;;-7.06;81.20;96324.23;106623;1275;22700;-80
2024/01/20 06:34:45;;;;;;;8.80;3.90;;;;;;;-7.14;81.64;96330.27;106669;1274;24867;-79
2024/01/20 06:37:14;;;;;;;7.90;3.30;;;;;;;-7.19;81.39;96336.42;106665;1274;25365;-79
2024/01/20 06:39:42;;;;;;;10.00;3.40;;;;;;;-7.25;81.55;96345.15;106645;1274;25370;-79
2024/01/20 06:42:12;;;;;;;8.10;4.80;;;;;;;-7.35;80.95;96349.98;106384;1275;22569;-79
2024/01/20 06:44:40;;;;;;;9.20;3.30;;;;;;;-7.49;80.89;96351.89;106715;1274;24357;-79
2024/01/20 06:47:08;;;;;;;22.50;8.40;;;;;;;-7.47;81.88;96351.16;106679;1274;22594;-80
2024/01/20 06:49:40;;;;;;;15.60;6.80;;;;;;;-7.42;82.28;96362.59;107006;1275;22535;-79
2024/01/20 06:52:09;;;;;;;105.60;40.00;;;;;;;-7.32;82.24;96369.64;106877;1274;22521;-79
2024/01/20 06:54:39;;;;;;;75.90;27.40;;;;;;;-7.28;81.73;96372.12;106958;1263;25502;-79
2024/01/20 06:57:08;;;;;;;96.30;37.20;;;;;;;-7.27;81.49;96377.48;106713;1274;22529;-79
2024/01/20 06:59:37;;;;;;;82.20;32.00;;;;;;;-7.27;81.36;96379.71;106688;1274;24518;-79
2024/01/20 07:02:05;;;;;;;59.70;26.10;;;;;;;-7.27;81.36;96388.10;106648;1274;25432;-79
2024/01/20 07:04:34;;;;;;;38.50;16.20;;;;;;;-7.24;81.28;96382.98;106700;1275;22558;-79
2024/01/20 07:07:02;;;;;;;40.20;17.80;;;;;;;-7.22;81.27;96383.29;106699;1274;22649;-79
2024/01/20 07:09:30;;;;;;;54.50;25.30;;;;;;;-7.16;81.39;96391.84;106670;1274;25589;-79
2024/01/20 07:12:00;;;;;;;51.30;25.10;;;;;;;-7.14;81.29;96398.65;106749;1275;24468;-79
2024/01/20 07:14:29;;;;;;;43.30;20.50;;;;;;;-7.10;82.00;96407.09;106714;1275;24838;-79
2024/01/20 07:16:57;;;;;;;71.00;45.70;;;;;;;-6.94;81.66;96407.55;106654;1274;22734;-79
2024/01/20 07:19:26;;;;;;;102.90;53.90;;;;;;;-6.93;81.06;96407.42;106725;1274;22703;-79
2024/01/20 07:21:54;;;;;;;63.80;34.10;;;;;;;-6.88;81.62;96406.38;106655;1274;25044;-79
2024/01/20 07:24:23;;;;;;;44.20;21.40;;;;;;;-6.81;81.46;96411.80;106623;1274;24221;-79
2024/01/20 07:26:51;;;;;;;52.40;26.40;;;;;;;-6.68;81.65;96418.39;106680;1274;22642;-79
2024/01/20 07:29:19;;;;;;;43.90;20.60;;;;;;;-6.51;81.14;96416.83;106713;1274;25406;-79
2024/01/20 07:31:47;;;;;;;56.20;27.10;;;;;;;-6.54;80.59;96421.08;106644;1274;22529;-79
2024/01/20 07:34:16;;;;;;;54.50;24.60;;;;;;;-6.54;80.94;96421.95;106759;1274;26664;-79
2024/01/20 07:36:44;;;;;;;20.30;9.60;;;;;;;-6.44;80.91;96418.08;106703;1274;22533;-79
2024/01/20 07:39:12;;;;;;;27.40;14.50;;;;;;;-6.41;79.96;96409.39;106706;1274;22772;-79
2024/01/20 07:41:41;;;;;;;33.30;18.40;;;;;;;-6.35;80.26;96417.77;106762;1275;23893;-79
2024/01/20 07:44:09;;;;;;;44.70;23.30;;;;;;;-6.23;80.44;96425.46;106651;1274;22523;-79
2024/01/20 07:46:37;;;;;;;46.90;26.90;;;;;;;-6.06;80.56;96427.52;106679;1275;22776;-79
2024/01/20 07:49:05;;;;;;;78.40;50.20;;;;;;;-5.92;80.48;96436.98;106732;1274;22666;-79
2024/01/20 07:51:34;;;;;;;75.40;38.90;;;;;;;-5.88;80.46;96439.29;106638;1275;22554;-79
2024/01/20 07:54:02;;;;;;;39.80;21.50;;;;;;;-5.74;80.50;96434.59;106710;1275;24441;-79
2024/01/20 07:56:31;;;;;;;28.20;15.10;;;;;;;-5.66;80.33;96437.83;106662;1275;25329;-78
2024/01/20 07:58:59;;;;;;;42.00;21.70;;;;;;;-5.67;79.31;96440.85;106827;1260;22527;-78
2024/01/20 08:01:28;;;;;;;46.50;23.00;;;;;;;-5.58;80.04;96441.88;107073;1275;22534;-79
2024/01/20 08:03:57;;;;;;;48.00;25.00;;;;;;;-5.36;80.13;96440.38;106805;1274;22886;-79
2024/01/20 08:06:27;;;;;;;52.80;27.80;;;;;;;-5.10;79.38;96441.42;106697;1274;24681;-79
2024/01/20 08:08:55;;;;;;;47.80;24.60;;;;;;;-4.82;79.09;96441.05;106680;1274;23279;-79
2024/01/20 08:11:23;;;;;;;40.70;21.80;;;;;;;-4.53;78.65;96446.36;106638;1274;25356;-79
2024/01/20 08:13:51;;;;;;;37.40;20.70;;;;;;;-4.36;78.73;96448.65;106659;1274;22524;-79
2024/01/20 08:16:20;;;;;;;42.90;21.90;;;;;;;-4.08;78.94;96451.30;106744;1274;22642;-79
2024/01/20 08:18:48;;;;;;;39.20;19.80;;;;;;;-3.86;77.43;96449.96;106684;1274;22801;-79
2024/01/20 08:21:20;;;;;;;49.50;27.80;;;;;;;-3.80;75.54;96457.67;106723;1274;24439;-79
2024/01/20 08:23:48;;;;;;;39.30;22.20;;;;;;;-3.94;75.60;96461.62;106637;1274;25426;-79
2024/01/20 08:26:17;;;;;;;36.40;19.00;;;;;;;-3.95;75.84;96465.67;106679;1274;24408;-80
2024/01/20 08:28:45;;;;;;;39.70;20.20;;;;;;;-3.88;76.03;96468.27;107028;1274;25505;-80
2024/01/20 08:31:13;;;;;;;39.00;21.40;;;;;;;-3.71;76.39;96466.71;106838;1275;22527;-80
2024/01/20 08:33:42;;;;;;;33.10;18.10;;;;;;;-3.65;75.22;96467.85;106630;1275;24495;-80
2024/01/20 08:36:11;;;;;;;32.30;17.20;;;;;;;-3.60;75.29;96472.45;106689;1274;22519;-80
2024/01/20 08:38:39;;;;;;;30.00;17.20;;;;;;;-3.58;74.93;96474.45;106633;1274;25410;-80
2024/01/20 08:41:09;;;;;;;28.90;15.50;;;;;;;-3.53;75.09;96475.70;106578;1275;22527;-80
2024/01/20 08:43:42;;;;;;;30.40;16.10;;;;;;;-3.39;75.07;96478.11;106820;1275;25298;-80
2024/01/20 08:46:12;;;;;;;24.30;13.40;;;;;;;-3.29;74.07;96479.09;106757;1275;24275;-80
2024/01/20 08:48:40;;;;;;;33.20;18.50;;;;;;;-3.22;74.15;96481.67;106654;1274;25386;-80
2024/01/20 08:51:09;;;;;;;35.20;19.30;;;;;;;-3.05;74.48;96482.17;106727;1275;22523;-80
2024/01/20 08:53:39;;;;;;;79.40;35.00;;;;;;;-2.88;74.48;96486.39;106686;1253;25521;-80
2024/01/20 08:56:08;;;;;;;46.40;22.90;;;;;;;-2.75;74.27;96487.67;106739;1274;22531;-80
2024/01/20 08:58:36;;;;;;;33.10;17.70;;;;;;;-2.63;74.20;96487.41;106790;1274;25416;-80
2024/01/20 09:01:06;;;;;;;30.70;17.00;;;;;;;-2.42;74.44;96486.64;106866;1275;25246;-80
2024/01/20 09:03:34;;;;;;;23.90;13.10;;;;;;;-2.23;74.48;96488.00;106756;1274;24368;-80
2024/01/20 09:06:03;;;;;;;29.80;16.10;;;;;;;-2.20;73.30;96489.00;106649;1274;24320;-79
2024/01/20 09:08:32;;;;;;;29.80;16.60;;;;;;;-2.16;73.31;96485.89;106666;1274;22642;-79
2024/01/20 09:11:00;;;;;;;29.10;14.60;;;;;;;-2.04;72.79;96484.36;106663;1275;22533;-79
2024/01/20 09:13:28;;;;;;;29.20;14.50;;;;;;;-1.96;70.18;96482.83;106621;1274;25496;-79
2024/01/20 09:15:57;;;;;;;21.40;13.60;;;;;;;-1.83;70.33;96480.45;106683;1274;22533;-79
2024/01/20 09:18:25;;;;;;;19.00;10.10;;;;;;;-1.70;69.18;96486.02;106735;1274;25380;-79
2024/01/20 09:20:54;;;;;;;20.80;10.40;;;;;;;-1.65;67.87;96486.20;106659;1275;24244;-78
2024/01/20 09:23:22;;;;;;;14.90;8.00;;;;;;;-1.50;68.04;96482.86;106668;1275;22527;-78
2024/01/20 09:25:51;;;;;;;13.60;7.40;;;;;;;-1.42;66.84;96483.23;106942;1275;22521;-78
2024/01/20 09:28:19;;;;;;;17.10;8.50;;;;;;;-1.35;66.06;96479.70;106650;1274;22535;-78
2024/01/20 09:30:47;;;;;;;21.70;10.30;;;;;;;-1.23;66.15;96476.73;106720;1274;22610;-78
2024/01/20 09:33:16;;;;;;;20.90;11.30;;;;;;;-1.09;66.13;96474.55;106677;1275;25403;-78
2024/01/20 09:35:45;;;;;;;14.40;8.60;;;;;;;-0.93;65.52;96473.27;106665;1274;25355;-78
2024/01/20 09:38:13;;;;;;;17.70;9.10;;;;;;;-0.82;64.83;96478.56;106643;1274;22523;-78
2024/01/20 09:40:41;;;;;;;23.30;11.70;;;;;;;-0.66;65.76;96470.71;106721;1274;22567;-78
2024/01/20 09:43:10;;;;;;;20.70;11.10;;;;;;;-0.55;64.64;96464.73;106623;1275;24281;-78
2024/01/20 09:45:40;;;;;;;30.70;14.00;;;;;;;-0.43;63.72;96459.33;106705;1275;24374;-77
2024/01/20 09:48:09;;;;;;;25.00;12.70;;;;;;;-0.36;63.35;96458.37;106673;1274;22523;-77
2024/01/20 09:50:37;;;;;;;28.80;13.10;;;;;;;-0.35;61.94;96454.59;106635;1274;22524;-77
2024/01/20 09:53:17;;;;;;;17.90;9.50;;;;;;;-0.28;62.08;96454.32;106665;1275;22527;-78
2024/01/20 09:55:46;;;;;;;25.00;12.20;;;;;;;-0.18;61.93;96458.71;106973;1275;25383;-77
2024/01/20 09:58:16;;;;;;;20.80;10.70;;;;;;;-0.03;61.69;96462.70;106691;1275;25428;-77
2024/01/20 10:00:44;;;;;;;19.40;11.40;;;;;;;0.07;61.40;96459.93;106827;1274;22526;-76
2024/01/20 10:03:17;;;;;;;18.30;9.40;;;;;;;0.15;60.85;96455.20;106789;1274;22582;-76
2024/01/20 10:05:46;;;;;;;28.00;13.00;;;;;;;0.29;60.58;96454.45;106680;1275;25600;-77
2024/01/20 10:08:14;;;;;;;28.90;14.20;;;;;;;0.48;60.28;96449.75;106801;1274;24221;-76
2024/01/20 10:10:42;;;;;;;19.00;8.80;;;;;;;0.81;60.02;96451.20;106610;1274;22636;-76
2024/01/20 10:13:13;;;;;;;21.40;11.40;;;;;;;1.19;58.13;96445.84;106710;1274;22553;-76
2024/01/20 10:15:41;;;;;;;19.10;11.30;;;;;;;1.58;57.03;96447.89;106681;1274;25351;-76
2024/01/20 10:18:10;;;;;;;19.70;11.90;;;;;;;2.00;57.46;96450.46;106640;1274;22789;-77
2024/01/20 10:20:40;;;;;;;15.10;9.20;;;;;;;2.32;55.72;96443.40;106752;1274;22561;-76
2024/01/20 10:23:08;;;;;;;18.60;9.70;;;;;;;2.63;54.40;96442.63;106657;1274;22747;-77
2024/01/20 10:25:37;;;;;;;16.80;9.40;;;;;;;3.01;53.09;96440.45;106694;1275;22520;-77
2024/01/20 10:28:07;;;;;;;14.00;8.70;;;;;;;3.45;52.05;96437.98;106737;1275;22601;-77
2024/01/20 10:30:38;;;;;;;13.10;8.00;;;;;;;3.82;50.68;96438.79;106706;1275;25416;-77
2024/01/20 10:33:08;;;;;;;15.10;9.00;;;;;;;4.09;49.79;96438.30;106681;1275;24221;-77
2024/01/20 10:35:39;;;;;;;11.70;6.80;;;;;;;4.40;48.51;96439.27;106684;1274;22789;-77
2024/01/20 10:38:12;;;;;;;21.40;11.90;;;;;;;4.80;47.82;96441.71;106984;1275;25445;-77
2024/01/20 10:40:42;;;;;;;20.80;11.50;;;;;;;5.27;49.25;96432.55;106660;1275;24630;-77
2024/01/20 10:43:13;;;;;;;17.90;11.00;;;;;;;5.46;46.39;96433.88;106757;1274;22527;-77
2024/01/20 10:45:54;;;;;;;18.20;11.10;;;;;;;5.55;45.87;96434.89;106705;1252;24414;-77
2024/01/20 10:48:26;;;;;;;17.50;10.20;;;;;;;5.86;45.61;96434.96;106683;1274;25356;-77
2024/01/20 10:50:59;;;;;;;18.20;9.60;;;;;;;6.14;44.05;96434.30;106755;1275;23894;-77
2024/01/20 10:53:29;;;;;;;17.60;10.60;;;;;;;6.30;43.75;96432.55;106597;1274;395702;-77
2024/01/20 10:55:58;;;;;;;10.90;6.20;;;;;;;6.43;42.74;96434.45;106688;1275;24275;-77
2024/01/20 10:58:40;;;;;;;12.60;6.60;;;;;;;6.42;41.09;96427.98;106912;1274;22651;-77
2024/01/20 11:01:09;;;;;;;12.50;9.20;;;;;;;6.50;41.55;96427.19;106872;1275;22526;-77
2024/01/20 11:03:39;;;;;;;11.00;7.20;;;;;;;6.87;41.55;96430.52;106834;1274;22528;-78
2024/01/20 11:06:18;;;;;;;12.50;7.40;;;;;;;7.11;40.64;96425.66;106859;1274;22533;-77
2024/01/20 11:08:51;;;;;;;11.50;7.10;;;;;;;7.34;39.93;96419.70;106780;1257;24060;-77
2024/01/20 11:11:25;;;;;;;14.00;8.60;;;;;;;7.36;38.91;96416.04;106754;1271;22534;-77
2024/01/20 11:13:57;;;;;;;;;;;;;;;7.40;39.11;96416.95;106677;1274;22539;-78
2024/01/20 11:16:31;;;;;;;7.30;4.40;;;;;;;7.26;39.50;96415.10;106634;1275;22551;-78
2024/01/20 11:19:10;;;;;;;20.00;10.90;;;;;;;7.27;39.77;96408.80;106782;1274;22536;-78
2024/01/20 11:21:39;;;;;;;10.00;5.30;;;;;;;7.61;40.26;96411.84;106670;1274;22734;-78
2024/01/20 11:24:07;;;;;;;12.60;7.50;;;;;;;7.84;39.55;96410.20;106887;1275;22629;-77
2024/01/20 11:26:38;;;;;;;10.30;7.10;;;;;;;8.05;37.95;96408.21;106635;1274;22528;-77